Database: COMPET-N - COOP - 3PL - 4PL - CNDOOM

WAD: Doom | Doom 2 | TNT | Plutonia | AV | HR | Scythe | MM | MM2 | Requiem | CE
Category: speed | nmare | max | nm100s | tyson | pacifist | fast | respawn | nomo | misc | built | all
Highscore: ALL | IWAD | PWAD | Country | Continent

Remove: wad | map | category | player | all
MapPlayerTimeDateFilenameCommentsDL
MAP01: The GatewayJim Leonard38.002004-04-14rr01-038.zip - 387
MAP01: EntrywayJim Leonard41.002006-03-01re01-041.zip - 571
MAP01: EntrywayJim Leonard44.002005-01-19re01-044.zip - 448
MAP01: The GatewayJim Leonard44.002002-02-11rr01-044.zip - 397
MAP01: The GatewayJim Leonard47.002001-09-21rr01-047.zip - 381
MAP20: The Forsaken HallJim Leonard49.002002-06-30rr20-049.zip - 212
MAP01: System ControlJim Leonard55.002001-10-18er01-055.zip - 391
MAP02: SacrificiumJim Leonard1:01.002020-02-17rr02-101.zip - 94
MAP02: SacrificiumJim Leonard1:03.002004-04-14rr02-103.zip - 239
MAP02: SacrificiumJim Leonard1:05.002004-04-14rr02-105.zip - 238
MAP26: ExcoriationJim Leonard1:05.002002-04-12rr26-105.zip - 201
MAP02: SacrificiumJim Leonard1:17.002001-11-15rr02-117.zip - 233
MAP30: NevermoreJim Leonard1:19.002002-06-23rr30-119.zip - 195
MAP10: RedemptionJim Leonard2:00.002002-07-31er10-200.zip - 256
MAP01: CongoJim Leonard2:06.002006-03-02pr01-206.zip - 503
MAP02: Well of SoulsJim Leonard2:15.002002-08-08pr02-215.zip - 258
MAP10: OnslaughtJim Leonard2:33.002006-06-19pr10-233.zip - 327
MAP17: Processing AreaJim Leonard2:44.002002-08-03er17-244.zip - 261
MAP09: AbattoireJim Leonard3:02.002006-06-19pr09-302.zip - 326
MAP13: The CryptJim Leonard3:03.002002-08-08pr13-303.zip - 315
MAP05: Ghost TownJim Leonard3:05.002002-05-07pr05-305.zip - 343
MAP11: HuntedJim Leonard3:11.002006-06-17pr11-311.zip - 237
MAP13: Nukage ProcessingJim Leonard3:22.002002-08-02er13-322.zip - 329
MAP31: Doorway to QuakeJim Leonard3:22.002002-04-12rr31-322.zip - 243
MAP03: Power ControlJim Leonard3:24.002002-01-28er03-324.zip - 260
MAP10: The Black GateJim Leonard3:37.002002-06-18rr10-337.zip - 286
MAP11: Storage FacilityJim Leonard3:40.002002-08-02er11-340.zip - 256
MAP06: Barons LairJim Leonard3:41.002002-05-07pr06-341.zip - 327
MAP11: Rats in the WallsJim Leonard3:48.002001-09-22rr11-348.zip - 222
MAP06: Open SeasonJim Leonard3:55.002001-09-10er06-355.zip - 254
MAP03: AztecJim Leonard3:58.002002-08-08pr03-358.zip - 249
MAP15: Dead ZoneJim Leonard3:59.002002-01-28er15-359.zip - 241
MAP10: OnslaughtJim Leonard4:09.002002-09-15pr10-409.zip - 269
MAP07: FrustrationJim Leonard4:10.462018-12-05m207r410.zip - 192
MAP03: ...And Hell BeneathJim Leonard4:11.172018-12-29m203r411.zip - 211
MAP04: CagedJim Leonard4:17.002002-09-29pr04-417.zip - 347
MAP12: CraterJim Leonard4:35.002002-08-02er12-435.zip - 310
MAP31S: Cyberden Secret ExitJim Leonard4:37.002006-06-11pr31-437.zip - 307
MAP05: Rites of PassageJim Leonard4:37.002010-08-07m205r437.zip - 237
MAP07: PrisonJim Leonard4:50.002002-08-02er07-450.zip - 341
MAP29: Odyssey of NoisesJim Leonard5:02.002006-06-18pr29-502.zip - 207
MAP19: Shipping/RespawningJim Leonard5:03.002002-08-17er19-503.zip - 335
MAP11: HuntedJim Leonard5:17.002001-11-19pr11-517.zip - 214
MAP09: AbattoireJim Leonard5:19.002002-09-15pr09-519.zip - 201
MAP08: MetalJim Leonard5:31.002002-05-07er08-531.zip - 322
MAP05: HangerJim Leonard5:35.002002-03-26er05-535.zip - 243
MAP16: Deepest ReachesJim Leonard5:47.002002-01-28er16-547.zip - 261
MAP02: Human BBQJim Leonard6:17.002002-08-15er02-617.zip - 359
MAP14: Steel WorksJim Leonard6:18.002002-03-26er14-618.zip - 301
MAP08: RealmJim Leonard6:19.002002-09-15pr08-619.zip - 324
MAP04: WormholeJim Leonard6:55.002002-05-23er04-655.zip - 347
MAP03: Poison ProcessingJim Leonard7:01.002001-09-21rr03-701.zip - 217
MAP14: The PortalJim Leonard7:26.002011-07-03rr14-726.zip - 274
MAP09: Deep Down BelowJim Leonard7:35.002002-06-16rr09-735.zip - 289
MAP18: MillJim Leonard7:44.002002-08-17er18-744.zip - 320
MAP09: StrongholdJim Leonard7:51.002011-12-04er09-751.zip - 327
MAP29: River StyxJim Leonard8:04.002002-08-17er29-804.zip - 253
MAP13: Town of the DeadJim Leonard8:34.002002-06-20rr13-834.zip - 313
MAP31S: Cyberden Secret ExitJim Leonard8:43.002002-09-15pr31-843.zip - 223
MAP06: nataS ot etubirTJim Leonard8:43.002002-06-16rr06-843.zip - 312
MAP12: Militant ReprisalJim Leonard9:13.002002-07-02rr12-913.zip - 296
MAP09: KnockoutJim Leonard9:47.002002-01-08he09-947.zip - 306
MAP16: Escape from ChaosJim Leonard9:55.002002-06-21rr16-955.zip - 308
MAP07: CaughtyardJim Leonard11:03.002002-05-07pr071103.zip - 229
MAP05: The CanyonJim Leonard12:01.002002-02-12rr051201.zip - 316
MAP04: FireworksJim Leonard12:35.002001-08-25rr041235.zip - 228
MAP08: The ReactorJim Leonard14:39.002002-06-30rr081439.zip - 211
Remove: wad | map | category | player | all